Time,TemperatureF,DewpointF,PressureIn,WindDirection,WindDirectionDegrees,WindSpeedMPH,WindSpeedGustMPH,Humidity,HourlyPrecipIn,Conditions,Clouds,dailyrainin,SoftwareType,DateUTC
2013-03-11 00:09:00,69.1,61.0,30.10,ENE,74,2.0,-999.0,74,-99.99,,,0.00,weatherlink.com 1.10,2013-03-11 04:09:00,
2013-03-11 00:23:00,69.1,61.0,30.09,ENE,59,2.0,-999.0,74,-99.99,,,0.00,weatherlink.com 1.10,2013-03-11 04:23:00,
2013-03-11 00:39:00,69.0,61.0,30.09,NE,55,1.0,-999.0,75,-99.99,,,0.00,weatherlink.com 1.10,2013-03-11 04:39:00,
2013-03-11 00:53:00,69.2,61.0,30.08,SSE,155,2.0,-999.0,74,-99.99,,,0.00,weatherlink.com 1.10,2013-03-11 04:53:00,
2013-03-11 01:08:00,68.9,61.0,30.08,ESE,113,4.0,-999.0,75,-99.99,,,0.00,weatherlink.com 1.10,2013-03-11 05:08:00,
2013-03-11 01:23:00,68.9,60.0,30.07,SE,126,7.0,-999.0,74,-99.99,,,0.00,weatherlink.com 1.10,2013-03-11 05:23:00,
2013-03-11 01:39:00,68.9,60.0,30.07,ESE,103,4.0,-999.0,74,-99.99,,,0.00,weatherlink.com 1.10,2013-03-11 05:39:00,
2013-03-11 01:54:00,68.7,60.0,30.07,ESE,104,1.0,-999.0,74,-99.99,,,0.00,weatherlink.com 1.10,2013-03-11 05:54:00,
2013-03-11 02:09:00,68.6,60.0,30.07,ENE,59,0.0,-999.0,75,-99.99,,,0.00,weatherlink.com 1.10,2013-03-11 06:09:00,
2013-03-11 02:24:00,68.6,60.0,30.06,SSE,168,2.0,-999.0,74,-99.99,,,0.00,weatherlink.com 1.10,2013-03-11 06:24:00,
2013-03-11 02:39:00,68.6,60.0,30.05,East,80,7.0,-999.0,75,-99.99,,,0.00,weatherlink.com 1.10,2013-03-11 06:39:00,
2013-03-11 02:54:00,68.6,61.0,30.05,ESE,106,9.0,-999.0,76,-99.99,,,0.00,weatherlink.com 1.10,2013-03-11 06:54:00,
2013-03-11 03:09:00,68.5,61.0,30.04,SSE,149,0.0,-999.0,76,-99.99,,,0.00,weatherlink.com 1.10,2013-03-11 07:09:00,
2013-03-11 03:24:00,68.6,60.0,30.04,SE,124,0.0,-999.0,75,-99.99,,,0.00,weatherlink.com 1.10,2013-03-11 07:24:00,
2013-03-11 03:39:00,68.5,60.0,30.03,ESE,116,5.0,-999.0,75,-99.99,,,0.00,weatherlink.com 1.10,2013-03-11 07:39:00,
2013-03-11 03:54:00,68.3,60.0,30.03,East,91,5.0,-999.0,75,-99.99,,,0.00,weatherlink.com 1.10,2013-03-11 07:54:00,
2013-03-11 04:09:00,68.7,60.0,30.02,East,84,1.0,-999.0,74,-99.99,,,0.00,weatherlink.com 1.10,2013-03-11 08:09:00,
2013-03-11 04:24:00,69.0,60.0,30.02,East,91,6.0,-999.0,74,-99.99,,,0.00,weatherlink.com 1.10,2013-03-11 08:24:00,
2013-03-11 04:39:00,68.7,60.0,30.01,ESE,104,1.0,-999.0,74,-99.99,,,0.00,weatherlink.com 1.10,2013-03-11 08:39:00,
2013-03-11 04:54:00,68.6,60.0,30.01,ESE,117,2.0,-999.0,74,-99.99,,,0.00,weatherlink.com 1.10,2013-03-11 08:54:00,
2013-03-11 05:09:00,68.5,60.0,30.01,SE,142,0.0,-999.0,73,-99.99,,,0.00,weatherlink.com 1.10,2013-03-11 09:09:00,
2013-03-11 05:24:00,68.1,59.0,30.01,ESE,122,5.0,-999.0,73,-99.99,,,0.00,weatherlink.com 1.10,2013-03-11 09:24:00,
2013-03-11 05:39:00,68.0,59.0,30.01,ESE,114,2.0,-999.0,73,-99.99,,,0.00,weatherlink.com 1.10,2013-03-11 09:39:00,
2013-03-11 05:54:00,68.2,59.0,30.00,South,190,2.0,-999.0,73,-99.99,,,0.00,weatherlink.com 1.10,2013-03-11 09:54:00,
2013-03-11 06:09:00,68.4,59.0,30.00,SE,141,1.0,-999.0,73,-99.99,,,0.00,weatherlink.com 1.10,2013-03-11 10:09:00,
2013-03-11 06:24:00,68.6,60.0,30.00,SE,127,2.0,-999.0,73,-99.99,,,0.00,weatherlink.com 1.10,2013-03-11 10:24:00,
2013-03-11 06:39:00,69.0,60.0,30.01,ESE,117,0.0,-999.0,73,-99.99,,,0.00,weatherlink.com 1.10,2013-03-11 10:39:00,
2013-03-11 06:54:00,69.5,61.0,30.00,SE,129,4.0,-999.0,73,-99.99,,,0.00,weatherlink.com 1.10,2013-03-11 10:54:00,
2013-03-11 07:09:00,69.7,61.0,30.01,East,89,0.0,-999.0,73,-99.99,,,0.00,weatherlink.com 1.10,2013-03-11 11:09:00,
2013-03-11 07:24:00,69.6,60.0,30.01,SE,126,0.0,-999.0,71,-99.99,,,0.00,weatherlink.com 1.10,2013-03-11 11:24:00,
2013-03-11 07:39:00,69.2,59.0,30.01,South,169,1.0,-999.0,71,-99.99,,,0.00,weatherlink.com 1.10,2013-03-11 11:39:00,
2013-03-11 07:54:00,68.6,59.0,30.02,ESE,107,0.0,-999.0,72,-99.99,,,0.00,weatherlink.com 1.10,2013-03-11 11:54:00,
2013-03-11 08:09:00,68.6,59.0,30.02,SSE,153,0.0,-999.0,72,-99.99,,,0.00,weatherlink.com 1.10,2013-03-11 12:09:00,
2013-03-11 08:24:00,69.4,60.0,30.02,SSE,165,1.0,-999.0,71,-99.99,,,0.00,weatherlink.com 1.10,2013-03-11 12:24:00,
2013-03-11 08:39:00,69.3,60.0,30.03,SE,124,0.0,-999.0,71,-99.99,,,0.00,weatherlink.com 1.10,2013-03-11 12:39:00,
2013-03-11 08:54:00,70.1,60.0,30.04,South,172,1.0,-999.0,70,-99.99,,,0.00,weatherlink.com 1.10,2013-03-11 12:54:00,
2013-03-11 09:10:00,72.2,60.0,30.04,SW,215,3.0,-999.0,65,-99.99,,,0.00,weatherlink.com 1.10,2013-03-11 13:10:00,
2013-03-11 09:24:00,72.8,60.0,30.04,SSE,163,2.0,-999.0,64,-99.99,,,0.00,weatherlink.com 1.10,2013-03-11 13:24:00,
2013-03-11 09:39:00,73.4,60.0,30.04,ESE,119,5.0,-999.0,64,-99.99,,,0.00,weatherlink.com 1.10,2013-03-11 13:39:00,
2013-03-11 09:55:00,72.8,60.0,30.05,SE,138,7.0,-999.0,65,-99.99,,,0.00,weatherlink.com 1.10,2013-03-11 13:55:00,
2013-03-11 10:09:00,72.5,60.0,30.05,SSE,160,5.0,-999.0,65,-99.99,,,0.00,weatherlink.com 1.10,2013-03-11 14:09:00,
2013-03-11 10:24:00,73.3,60.0,30.05,East,94,6.0,-999.0,64,-99.99,,,0.00,weatherlink.com 1.10,2013-03-11 14:24:00,
2013-03-11 10:39:00,74.1,60.0,30.05,South,179,5.0,-999.0,62,-99.99,,,0.00,weatherlink.com 1.10,2013-03-11 14:39:00,
2013-03-11 10:54:00,74.1,60.0,30.05,ESE,117,6.0,-999.0,62,-99.99,,,0.00,weatherlink.com 1.10,2013-03-11 14:54:00,
2013-03-11 11:09:00,74.0,60.0,30.05,SE,135,4.0,-999.0,62,-99.99,,,0.00,weatherlink.com 1.10,2013-03-11 15:09:00,
2013-03-11 11:24:00,74.6,61.0,30.05,SE,136,5.0,-999.0,62,-99.99,,,0.00,weatherlink.com 1.10,2013-03-11 15:24:00,
2013-03-11 11:39:00,74.2,60.0,30.05,SSW,210,6.0,-999.0,62,-99.99,,,0.00,weatherlink.com 1.10,2013-03-11 15:39:00,
2013-03-11 11:54:00,74.4,60.0,30.05,SE,146,6.0,-999.0,62,-99.99,,,0.00,weatherlink.com 1.10,2013-03-11 15:54:00,
2013-03-11 12:09:00,74.6,59.0,30.05,SSW,199,4.0,-999.0,58,-99.99,,,0.00,weatherlink.com 1.10,2013-03-11 16:09:00,
2013-03-11 12:24:00,75.7,59.0,30.04,SE,144,2.0,-999.0,57,-99.99,,,0.00,weatherlink.com 1.10,2013-03-11 16:24:00,
2013-03-11 12:39:00,76.6,59.0,30.03,SSW,213,6.0,-999.0,54,-99.99,,,0.00,weatherlink.com 1.10,2013-03-11 16:39:00,
2013-03-11 12:54:00,76.2,59.0,30.03,SE,140,6.0,-999.0,56,-99.99,,,0.00,weatherlink.com 1.10,2013-03-11 16:54:00,
2013-03-11 13:09:00,76.8,59.0,30.02,SSE,163,11.0,-999.0,55,-99.99,,,0.00,weatherlink.com 1.10,2013-03-11 17:09:00,
2013-03-11 13:24:00,76.8,60.0,30.02,SSE,161,4.0,-999.0,56,-99.99,,,0.00,weatherlink.com 1.10,2013-03-11 17:24:00,
2013-03-11 13:39:00,76.8,59.0,30.01,South,187,2.0,-999.0,54,-99.99,,,0.00,weatherlink.com 1.10,2013-03-11 17:39:00,
2013-03-11 13:54:00,77.5,61.0,30.01,South,172,5.0,-999.0,57,-99.99,,,0.00,weatherlink.com 1.10,2013-03-11 17:54:00,
2013-03-11 14:09:00,77.8,60.0,30.00,ESE,123,5.0,-999.0,54,-99.99,,,0.00,weatherlink.com 1.10,2013-03-11 18:09:00,
2013-03-11 14:24:00,77.1,61.0,30.00,SE,144,2.0,-999.0,57,-99.99,,,0.00,weatherlink.com 1.10,2013-03-11 18:24:00,
2013-03-11 14:39:00,76.7,61.0,30.00,SE,142,8.0,-999.0,59,-99.99,,,0.00,weatherlink.com 1.10,2013-03-11 18:39:00,
2013-03-11 14:54:00,76.6,61.0,30.01,SE,142,2.0,-999.0,59,-99.99,,,0.00,weatherlink.com 1.10,2013-03-11 18:54:00,
2013-03-11 15:09:00,76.3,61.0,30.01,SSE,167,5.0,-999.0,60,-99.99,,,0.00,weatherlink.com 1.10,2013-03-11 19:09:00,
2013-03-11 15:24:00,76.2,61.0,30.01,SW,217,7.0,-999.0,60,-99.99,,,0.00,weatherlink.com 1.10,2013-03-11 19:24:00,
2013-03-11 15:39:00,78.0,61.0,30.00,SE,139,6.0,-999.0,57,-99.99,,,0.00,weatherlink.com 1.10,2013-03-11 19:39:00,
2013-03-11 15:54:00,77.0,61.0,30.00,ENE,71,4.0,-999.0,59,-99.99,,,0.00,weatherlink.com 1.10,2013-03-11 19:54:00,
2013-03-11 16:09:00,76.0,61.0,30.00,SSE,153,2.0,-999.0,60,-99.99,,,0.00,weatherlink.com 1.10,2013-03-11 20:09:00,
2013-03-11 16:40:00,76.0,61.0,29.99,ESE,123,8.0,-999.0,61,-99.99,,,0.00,weatherlink.com 1.10,2013-03-11 20:40:00,
2013-03-11 16:55:00,75.4,61.0,29.99,SSE,161,4.0,-999.0,62,-99.99,,,0.00,weatherlink.com 1.10,2013-03-11 20:55:00,
2013-03-11 17:09:00,75.9,62.0,29.99,SSE,164,4.0,-999.0,62,-99.99,,,0.00,weatherlink.com 1.10,2013-03-11 21:09:00,
2013-03-11 17:25:00,75.8,62.0,29.97,SSE,161,9.0,-999.0,62,-99.99,,,0.00,weatherlink.com 1.10,2013-03-11 21:25:00,
2013-03-11 17:40:00,75.2,61.0,29.97,ESE,115,5.0,-999.0,62,-99.99,,,0.00,weatherlink.com 1.10,2013-03-11 21:40:00,
2013-03-11 17:55:00,74.6,62.0,29.96,ESE,114,6.0,-999.0,65,-99.99,,,0.00,weatherlink.com 1.10,2013-03-11 21:55:00,
2013-03-11 18:10:00,74.3,62.0,29.95,SSW,197,5.0,-999.0,66,-99.99,,,0.00,weatherlink.com 1.10,2013-03-11 22:10:00,
2013-03-11 18:25:00,73.5,62.0,29.95,SE,146,5.0,-999.0,68,-99.99,,,0.00,weatherlink.com 1.10,2013-03-11 22:25:00,
2013-03-11 18:40:00,73.1,62.0,29.95,SE,134,5.0,-999.0,69,-99.99,,,0.00,weatherlink.com 1.10,2013-03-11 22:40:00,
2013-03-11 18:55:00,72.8,62.0,29.95,SSE,161,4.0,-999.0,68,-99.99,,,0.00,weatherlink.com 1.10,2013-03-11 22:55:00,
2013-03-11 19:10:00,72.4,62.0,29.96,ESE,109,5.0,-999.0,70,-99.99,,,0.00,weatherlink.com 1.10,2013-03-11 23:10:00,
2013-03-11 19:25:00,72.0,62.0,29.96,South,183,3.0,-999.0,71,-99.99,,,0.00,weatherlink.com 1.10,2013-03-11 23:25:00,
2013-03-11 19:40:00,71.5,62.0,29.96,SSE,168,2.0,-999.0,72,-99.99,,,0.00,weatherlink.com 1.10,2013-03-11 23:40:00,
2013-03-11 19:55:00,71.3,62.0,29.96,SE,138,4.0,-999.0,72,-99.99,,,0.00,weatherlink.com 1.10,2013-03-11 23:55:00,
2013-03-11 20:10:00,70.9,62.0,29.97,SE,130,1.0,-999.0,73,-99.99,,,0.00,weatherlink.com 1.10,2013-03-12 00:10:00,
2013-03-11 20:25:00,70.8,62.0,29.97,SSE,155,0.0,-999.0,74,-99.99,,,0.00,weatherlink.com 1.10,2013-03-12 00:25:00,
2013-03-11 20:40:00,70.5,62.0,29.98,SE,142,1.0,-999.0,74,-99.99,,,0.00,weatherlink.com 1.10,2013-03-12 00:40:00,
2013-03-11 20:55:00,70.4,62.0,29.98,South,171,2.0,-999.0,75,-99.99,,,0.00,weatherlink.com 1.10,2013-03-12 00:55:00,
2013-03-11 21:10:00,70.9,62.0,29.99,SE,140,1.0,-999.0,74,-99.99,,,0.00,weatherlink.com 1.10,2013-03-12 01:10:00,
2013-03-11 21:25:00,70.7,62.0,29.99,SE,146,2.0,-999.0,75,-99.99,,,0.00,weatherlink.com 1.10,2013-03-12 01:25:00,
2013-03-11 21:40:00,70.4,63.0,29.99,SSE,163,1.0,-999.0,76,-99.99,,,0.00,weatherlink.com 1.10,2013-03-12 01:40:00,
2013-03-11 21:54:00,70.2,62.0,29.99,SE,132,0.0,-999.0,76,-99.99,,,0.00,weatherlink.com 1.10,2013-03-12 01:54:00,
2013-03-11 22:10:00,70.0,63.0,29.99,SSE,161,0.0,-999.0,78,-99.99,,,0.00,weatherlink.com 1.10,2013-03-12 02:10:00,
2013-03-11 22:25:00,70.0,63.0,30.00,SE,134,2.0,-999.0,78,-99.99,,,0.00,weatherlink.com 1.10,2013-03-12 02:25:00,
2013-03-11 22:40:00,70.1,63.0,30.00,SE,137,4.0,-999.0,78,-99.99,,,0.00,weatherlink.com 1.10,2013-03-12 02:40:00,
2013-03-11 22:55:00,70.1,63.0,30.00,SSE,156,1.0,-999.0,78,-99.99,,,0.00,weatherlink.com 1.10,2013-03-12 02:55:00,
2013-03-11 23:10:00,70.0,63.0,30.00,SSW,198,0.0,-999.0,78,-99.99,,,0.00,weatherlink.com 1.10,2013-03-12 03:10:00,
2013-03-11 23:25:00,70.0,63.0,29.99,SSW,196,2.0,-999.0,77,-99.99,,,0.00,weatherlink.com 1.10,2013-03-12 03:25:00,
2013-03-11 23:40:00,70.1,63.0,29.98,SSE,164,5.0,-999.0,77,-99.99,,,0.00,weatherlink.com 1.10,2013-03-12 03:40:00,
2013-03-11 23:55:00,70.0,63.0,29.98,ESE,113,4.0,-999.0,77,-99.99,,,0.00,weatherlink.com 1.10,2013-03-12 03:55:00,